sensor_id;sensor_type;location;lat;lon;timestamp;P1;durP1;ratioP1;P2;durP2;ratioP2
42912;SDS011;50720;54.324;18.558;2024-02-23T00:01:05;21.85;;;13.27;;
42912;SDS011;50720;54.324;18.558;2024-02-23T00:03:49;28.52;;;15.27;;
42912;SDS011;50720;54.324;18.558;2024-02-23T00:06:34;22.55;;;14.68;;
42912;SDS011;50720;54.324;18.558;2024-02-23T00:09:17;24.45;;;14.07;;
42912;SDS011;50720;54.324;18.558;2024-02-23T00:12:01;27.08;;;14.98;;
42912;SDS011;50720;54.324;18.558;2024-02-23T00:14:45;24.02;;;14.50;;
42912;SDS011;50720;54.324;18.558;2024-02-23T00:17:29;22.40;;;14.25;;
42912;SDS011;50720;54.324;18.558;2024-02-23T00:20:12;22.88;;;14.55;;
42912;SDS011;50720;54.324;18.558;2024-02-23T00:22:58;24.50;;;15.20;;
42912;SDS011;50720;54.324;18.558;2024-02-23T00:25:41;22.17;;;13.98;;
42912;SDS011;50720;54.324;18.558;2024-02-23T00:28:25;22.38;;;13.85;;
42912;SDS011;50720;54.324;18.558;2024-02-23T00:31:09;26.25;;;14.75;;
42912;SDS011;50720;54.324;18.558;2024-02-23T00:33:52;20.95;;;13.15;;
42912;SDS011;50720;54.324;18.558;2024-02-23T00:36:36;22.58;;;14.38;;
42912;SDS011;50720;54.324;18.558;2024-02-23T00:39:22;22.95;;;13.43;;
42912;SDS011;50720;54.324;18.558;2024-02-23T00:42:05;24.75;;;13.55;;
42912;SDS011;50720;54.324;18.558;2024-02-23T00:44:49;24.00;;;14.90;;
42912;SDS011;50720;54.324;18.558;2024-02-23T00:47:33;25.08;;;13.88;;
42912;SDS011;50720;54.324;18.558;2024-02-23T00:50:18;21.42;;;11.32;;
42912;SDS011;50720;54.324;18.558;2024-02-23T00:53:02;22.63;;;13.50;;
42912;SDS011;50720;54.324;18.558;2024-02-23T00:55:47;24.15;;;12.73;;
42912;SDS011;50720;54.324;18.558;2024-02-23T00:58:31;21.15;;;12.75;;
42912;SDS011;50720;54.324;18.558;2024-02-23T01:01:14;20.30;;;11.57;;
42912;SDS011;50720;54.324;18.558;2024-02-23T01:03:58;21.90;;;12.90;;
42912;SDS011;50720;54.324;18.558;2024-02-23T01:06:42;21.50;;;13.50;;
42912;SDS011;50720;54.324;18.558;2024-02-23T01:09:25;20.73;;;12.77;;
42912;SDS011;50720;54.324;18.558;2024-02-23T01:12:10;21.25;;;12.88;;
42912;SDS011;50720;54.324;18.558;2024-02-23T01:14:55;19.20;;;12.10;;
42912;SDS011;50720;54.324;18.558;2024-02-23T01:17:41;20.00;;;12.70;;
42912;SDS011;50720;54.324;18.558;2024-02-23T01:20:25;21.55;;;12.50;;
42912;SDS011;50720;54.324;18.558;2024-02-23T01:23:09;17.60;;;11.70;;
42912;SDS011;50720;54.324;18.558;2024-02-23T01:25:52;19.50;;;12.20;;
42912;SDS011;50720;54.324;18.558;2024-02-23T01:28:37;22.30;;;12.73;;
42912;SDS011;50720;54.324;18.558;2024-02-23T01:31:20;21.05;;;12.40;;
42912;SDS011;50720;54.324;18.558;2024-02-23T01:34:04;20.55;;;12.18;;
42912;SDS011;50720;54.324;18.558;2024-02-23T01:36:48;20.13;;;12.77;;
42912;SDS011;50720;54.324;18.558;2024-02-23T01:39:31;19.58;;;12.45;;
42912;SDS011;50720;54.324;18.558;2024-02-23T01:42:15;23.42;;;13.15;;
42912;SDS011;50720;54.324;18.558;2024-02-23T01:45:00;25.10;;;14.48;;
42912;SDS011;50720;54.324;18.558;2024-02-23T01:47:45;25.25;;;14.35;;
42912;SDS011;50720;54.324;18.558;2024-02-23T01:50:28;24.27;;;14.48;;
42912;SDS011;50720;54.324;18.558;2024-02-23T01:53:13;26.17;;;14.20;;
42912;SDS011;50720;54.324;18.558;2024-02-23T01:55:57;22.70;;;13.82;;
42912;SDS011;50720;54.324;18.558;2024-02-23T01:58:42;24.23;;;14.73;;
42912;SDS011;50720;54.324;18.558;2024-02-23T02:01:27;21.08;;;14.02;;
42912;SDS011;50720;54.324;18.558;2024-02-23T02:04:10;22.80;;;16.10;;
42912;SDS011;50720;54.324;18.558;2024-02-23T02:06:54;24.40;;;15.13;;
42912;SDS011;50720;54.324;18.558;2024-02-23T02:09:38;30.13;;;14.80;;
42912;SDS011;50720;54.324;18.558;2024-02-23T02:12:28;24.65;;;14.35;;
42912;SDS011;50720;54.324;18.558;2024-02-23T02:15:12;23.75;;;15.00;;
42912;SDS011;50720;54.324;18.558;2024-02-23T02:17:57;22.95;;;14.13;;
42912;SDS011;50720;54.324;18.558;2024-02-23T02:20:41;23.52;;;14.20;;
42912;SDS011;50720;54.324;18.558;2024-02-23T02:23:33;23.70;;;14.02;;
42912;SDS011;50720;54.324;18.558;2024-02-23T02:26:18;19.92;;;14.50;;
42912;SDS011;50720;54.324;18.558;2024-02-23T02:29:02;23.70;;;14.45;;
42912;SDS011;50720;54.324;18.558;2024-02-23T02:31:46;24.80;;;15.90;;
42912;SDS011;50720;54.324;18.558;2024-02-23T02:34:31;26.58;;;15.68;;
42912;SDS011;50720;54.324;18.558;2024-02-23T02:37:15;27.42;;;16.48;;
42912;SDS011;50720;54.324;18.558;2024-02-23T02:39:58;25.23;;;14.57;;
42912;SDS011;50720;54.324;18.558;2024-02-23T02:42:42;23.25;;;15.52;;
42912;SDS011;50720;54.324;18.558;2024-02-23T02:45:27;25.70;;;15.43;;
42912;SDS011;50720;54.324;18.558;2024-02-23T02:48:10;23.33;;;15.10;;
42912;SDS011;50720;54.324;18.558;2024-02-23T02:50:55;26.13;;;15.48;;
42912;SDS011;50720;54.324;18.558;2024-02-23T02:53:39;29.58;;;17.60;;
42912;SDS011;50720;54.324;18.558;2024-02-23T02:56:23;25.85;;;15.63;;
42912;SDS011;50720;54.324;18.558;2024-02-23T02:59:06;25.38;;;16.88;;
42912;SDS011;50720;54.324;18.558;2024-02-23T03:01:50;27.10;;;18.05;;
42912;SDS011;50720;54.324;18.558;2024-02-23T03:04:33;25.42;;;15.88;;
42912;SDS011;50720;54.324;18.558;2024-02-23T03:07:18;29.10;;;16.38;;
42912;SDS011;50720;54.324;18.558;2024-02-23T03:10:02;28.13;;;17.83;;
42912;SDS011;50720;54.324;18.558;2024-02-23T03:12:46;26.60;;;18.45;;
42912;SDS011;50720;54.324;18.558;2024-02-23T03:15:29;23.95;;;16.73;;
42912;SDS011;50720;54.324;18.558;2024-02-23T03:18:13;31.65;;;20.17;;
42912;SDS011;50720;54.324;18.558;2024-02-23T03:20:57;28.85;;;16.95;;
42912;SDS011;50720;54.324;18.558;2024-02-23T03:23:42;31.65;;;18.95;;
42912;SDS011;50720;54.324;18.558;2024-02-23T03:26:26;26.42;;;16.90;;
42912;SDS011;50720;54.324;18.558;2024-02-23T03:29:10;26.23;;;16.67;;
42912;SDS011;50720;54.324;18.558;2024-02-23T03:31:53;29.77;;;17.85;;
42912;SDS011;50720;54.324;18.558;2024-02-23T03:34:37;31.30;;;18.92;;
42912;SDS011;50720;54.324;18.558;2024-02-23T03:37:21;29.58;;;16.27;;
42912;SDS011;50720;54.324;18.558;2024-02-23T03:40:07;30.05;;;18.38;;
42912;SDS011;50720;54.324;18.558;2024-02-23T03:42:52;28.80;;;16.98;;
42912;SDS011;50720;54.324;18.558;2024-02-23T03:45:36;25.85;;;16.45;;
42912;SDS011;50720;54.324;18.558;2024-02-23T03:48:19;24.85;;;16.38;;
42912;SDS011;50720;54.324;18.558;2024-02-23T03:51:03;26.38;;;17.20;;
42912;SDS011;50720;54.324;18.558;2024-02-23T03:53:47;26.13;;;17.15;;
42912;SDS011;50720;54.324;18.558;2024-02-23T03:56:38;24.08;;;16.92;;
42912;SDS011;50720;54.324;18.558;2024-02-23T03:59:23;29.35;;;16.98;;
42912;SDS011;50720;54.324;18.558;2024-02-23T04:02:06;29.50;;;16.63;;
42912;SDS011;50720;54.324;18.558;2024-02-23T04:04:50;29.23;;;16.48;;
42912;SDS011;50720;54.324;18.558;2024-02-23T04:07:35;31.35;;;18.05;;
42912;SDS011;50720;54.324;18.558;2024-02-23T04:10:19;24.80;;;15.38;;
42912;SDS011;50720;54.324;18.558;2024-02-23T04:13:04;27.02;;;16.27;;
42912;SDS011;50720;54.324;18.558;2024-02-23T04:15:47;25.38;;;15.75;;
42912;SDS011;50720;54.324;18.558;2024-02-23T04:18:31;26.13;;;16.60;;
42912;SDS011;50720;54.324;18.558;2024-02-23T04:21:15;26.00;;;15.55;;
42912;SDS011;50720;54.324;18.558;2024-02-23T04:23:59;26.05;;;15.48;;
42912;SDS011;50720;54.324;18.558;2024-02-23T04:26:42;28.58;;;14.50;;
42912;SDS011;50720;54.324;18.558;2024-02-23T04:29:27;24.38;;;15.85;;
42912;SDS011;50720;54.324;18.558;2024-02-23T04:32:11;22.40;;;15.18;;
42912;SDS011;50720;54.324;18.558;2024-02-23T04:34:54;22.60;;;14.57;;
42912;SDS011;50720;54.324;18.558;2024-02-23T04:37:38;24.35;;;15.48;;
42912;SDS011;50720;54.324;18.558;2024-02-23T04:40:22;23.48;;;15.77;;
42912;SDS011;50720;54.324;18.558;2024-02-23T04:43:05;23.30;;;15.85;;
42912;SDS011;50720;54.324;18.558;2024-02-23T04:45:50;21.80;;;15.40;;
42912;SDS011;50720;54.324;18.558;2024-02-23T04:48:34;21.40;;;14.27;;
42912;SDS011;50720;54.324;18.558;2024-02-23T04:51:17;25.02;;;15.00;;
42912;SDS011;50720;54.324;18.558;2024-02-23T04:54:01;20.42;;;13.93;;
42912;SDS011;50720;54.324;18.558;2024-02-23T04:56:44;21.20;;;14.00;;
42912;SDS011;50720;54.324;18.558;2024-02-23T04:59:28;28.20;;;13.52;;
42912;SDS011;50720;54.324;18.558;2024-02-23T05:02:15;20.75;;;14.35;;
42912;SDS011;50720;54.324;18.558;2024-02-23T05:04:59;23.85;;;14.25;;
42912;SDS011;50720;54.324;18.558;2024-02-23T05:07:42;23.75;;;13.93;;
42912;SDS011;50720;54.324;18.558;2024-02-23T05:10:26;18.65;;;13.40;;
42912;SDS011;50720;54.324;18.558;2024-02-23T05:13:10;17.73;;;12.93;;
42912;SDS011;50720;54.324;18.558;2024-02-23T05:15:55;18.38;;;11.75;;
42912;SDS011;50720;54.324;18.558;2024-02-23T05:18:40;17.73;;;12.63;;
42912;SDS011;50720;54.324;18.558;2024-02-23T05:21:23;18.55;;;12.70;;
42912;SDS011;50720;54.324;18.558;2024-02-23T05:24:07;19.58;;;12.13;;
42912;SDS011;50720;54.324;18.558;2024-02-23T05:26:51;16.67;;;12.18;;
42912;SDS011;50720;54.324;18.558;2024-02-23T05:29:34;17.15;;;11.63;;
42912;SDS011;50720;54.324;18.558;2024-02-23T05:32:18;17.65;;;11.52;;
42912;SDS011;50720;54.324;18.558;2024-02-23T05:35:04;16.90;;;10.88;;
42912;SDS011;50720;54.324;18.558;2024-02-23T05:37:48;15.45;;;11.40;;
42912;SDS011;50720;54.324;18.558;2024-02-23T05:40:32;13.70;;;10.10;;
42912;SDS011;50720;54.324;18.558;2024-02-23T05:43:15;16.25;;;11.65;;
42912;SDS011;50720;54.324;18.558;2024-02-23T05:45:59;15.98;;;10.32;;
42912;SDS011;50720;54.324;18.558;2024-02-23T05:48:42;14.98;;;10.32;;
42912;SDS011;50720;54.324;18.558;2024-02-23T05:51:28;13.57;;;9.55;;
42912;SDS011;50720;54.324;18.558;2024-02-23T05:54:12;13.00;;;9.48;;
42912;SDS011;50720;54.324;18.558;2024-02-23T05:56:55;16.65;;;9.75;;
42912;SDS011;50720;54.324;18.558;2024-02-23T05:59:39;12.02;;;8.48;;
42912;SDS011;50720;54.324;18.558;2024-02-23T06:02:22;12.55;;;8.25;;
42912;SDS011;50720;54.324;18.558;2024-02-23T06:05:07;11.38;;;8.35;;
42912;SDS011;50720;54.324;18.558;2024-02-23T06:07:52;16.52;;;8.60;;
42912;SDS011;50720;54.324;18.558;2024-02-23T06:10:36;12.23;;;7.95;;
42912;SDS011;50720;54.324;18.558;2024-02-23T06:13:20;9.93;;;7.80;;
42912;SDS011;50720;54.324;18.558;2024-02-23T06:16:04;21.00;;;7.95;;
42912;SDS011;50720;54.324;18.558;2024-02-23T06:18:48;10.82;;;7.28;;
42912;SDS011;50720;54.324;18.558;2024-02-23T06:21:32;10.20;;;7.45;;
42912;SDS011;50720;54.324;18.558;2024-02-23T06:24:17;8.70;;;6.38;;
42912;SDS011;50720;54.324;18.558;2024-02-23T06:27:01;8.73;;;6.50;;
42912;SDS011;50720;54.324;18.558;2024-02-23T06:29:44;11.05;;;6.55;;
42912;SDS011;50720;54.324;18.558;2024-02-23T06:32:28;12.43;;;6.95;;
42912;SDS011;50720;54.324;18.558;2024-02-23T06:35:12;9.02;;;6.50;;
42912;SDS011;50720;54.324;18.558;2024-02-23T06:37:56;9.10;;;6.25;;
42912;SDS011;50720;54.324;18.558;2024-02-23T06:40:41;9.13;;;6.53;;
42912;SDS011;50720;54.324;18.558;2024-02-23T06:43:32;8.95;;;5.93;;
42912;SDS011;50720;54.324;18.558;2024-02-23T06:46:16;10.57;;;6.35;;
42912;SDS011;50720;54.324;18.558;2024-02-23T06:49:02;11.93;;;5.95;;
42912;SDS011;50720;54.324;18.558;2024-02-23T06:51:46;6.72;;;5.00;;
42912;SDS011;50720;54.324;18.558;2024-02-23T06:54:30;7.90;;;5.30;;
42912;SDS011;50720;54.324;18.558;2024-02-23T06:57:15;7.07;;;4.55;;
42912;SDS011;50720;54.324;18.558;2024-02-23T06:59:58;6.72;;;4.75;;
42912;SDS011;50720;54.324;18.558;2024-02-23T07:02:42;6.85;;;4.55;;
42912;SDS011;50720;54.324;18.558;2024-02-23T07:05:25;5.18;;;3.67;;
42912;SDS011;50720;54.324;18.558;2024-02-23T07:08:09;6.28;;;3.63;;
42912;SDS011;50720;54.324;18.558;2024-02-23T07:10:52;5.70;;;3.72;;
42912;SDS011;50720;54.324;18.558;2024-02-23T07:13:38;4.63;;;3.22;;
42912;SDS011;50720;54.324;18.558;2024-02-23T07:16:22;5.00;;;2.83;;
42912;SDS011;50720;54.324;18.558;2024-02-23T07:19:05;5.72;;;3.05;;
42912;SDS011;50720;54.324;18.558;2024-02-23T07:21:49;6.63;;;3.05;;
42912;SDS011;50720;54.324;18.558;2024-02-23T07:24:32;3.00;;;2.22;;
42912;SDS011;50720;54.324;18.558;2024-02-23T07:27:16;6.03;;;2.95;;
42912;SDS011;50720;54.324;18.558;2024-02-23T07:30:01;5.03;;;2.90;;
42912;SDS011;50720;54.324;18.558;2024-02-23T07:32:46;4.85;;;2.53;;
42912;SDS011;50720;54.324;18.558;2024-02-23T07:35:33;3.60;;;2.55;;
42912;SDS011;50720;54.324;18.558;2024-02-23T07:38:17;3.67;;;2.70;;
42912;SDS011;50720;54.324;18.558;2024-02-23T07:41:01;4.68;;;2.25;;
42912;SDS011;50720;54.324;18.558;2024-02-23T07:43:45;3.55;;;2.45;;
42912;SDS011;50720;54.324;18.558;2024-02-23T07:46:30;2.65;;;1.90;;
42912;SDS011;50720;54.324;18.558;2024-02-23T07:49:13;3.60;;;2.22;;
42912;SDS011;50720;54.324;18.558;2024-02-23T07:51:57;4.65;;;2.35;;
42912;SDS011;50720;54.324;18.558;2024-02-23T07:54:41;2.65;;;2.13;;
42912;SDS011;50720;54.324;18.558;2024-02-23T07:57:24;3.88;;;2.03;;
42912;SDS011;50720;54.324;18.558;2024-02-23T08:00:08;2.88;;;1.92;;
42912;SDS011;50720;54.324;18.558;2024-02-23T08:02:53;2.45;;;1.80;;
42912;SDS011;50720;54.324;18.558;2024-02-23T08:05:38;3.30;;;1.55;;
42912;SDS011;50720;54.324;18.558;2024-02-23T08:08:22;2.90;;;1.85;;
42912;SDS011;50720;54.324;18.558;2024-02-23T08:11:07;2.20;;;1.50;;
42912;SDS011;50720;54.324;18.558;2024-02-23T08:13:51;3.40;;;1.70;;
42912;SDS011;50720;54.324;18.558;2024-02-23T08:16:34;2.75;;;1.63;;
42912;SDS011;50720;54.324;18.558;2024-02-23T08:19:19;1.80;;;1.45;;
42912;SDS011;50720;54.324;18.558;2024-02-23T08:22:03;2.65;;;1.45;;
42912;SDS011;50720;54.324;18.558;2024-02-23T08:24:47;4.35;;;1.33;;
42912;SDS011;50720;54.324;18.558;2024-02-23T08:27:30;2.10;;;0.88;;
42912;SDS011;50720;54.324;18.558;2024-02-23T08:30:14;1.83;;;1.00;;
42912;SDS011;50720;54.324;18.558;2024-02-23T08:32:58;3.70;;;1.17;;
42912;SDS011;50720;54.324;18.558;2024-02-23T08:35:43;2.42;;;1.00;;
42912;SDS011;50720;54.324;18.558;2024-02-23T08:38:26;2.03;;;0.80;;
42912;SDS011;50720;54.324;18.558;2024-02-23T08:41:10;2.13;;;1.50;;
42912;SDS011;50720;54.324;18.558;2024-02-23T08:43:54;1.73;;;1.00;;
42912;SDS011;50720;54.324;18.558;2024-02-23T08:46:38;2.08;;;1.10;;
42912;SDS011;50720;54.324;18.558;2024-02-23T08:49:22;2.92;;;0.73;;
42912;SDS011;50720;54.324;18.558;2024-02-23T08:52:07;6.85;;;2.70;;
42912;SDS011;50720;54.324;18.558;2024-02-23T08:54:51;2.10;;;0.60;;
42912;SDS011;50720;54.324;18.558;2024-02-23T08:57:35;2.03;;;1.00;;
42912;SDS011;50720;54.324;18.558;2024-02-23T09:00:18;2.03;;;0.55;;
42912;SDS011;50720;54.324;18.558;2024-02-23T09:03:44;1.08;;;0.70;;
42912;SDS011;50720;54.324;18.558;2024-02-23T09:09:29;3.55;;;0.70;;
42912;SDS011;50720;54.324;18.558;2024-02-23T09:12:20;1.55;;;0.80;;
42912;SDS011;50720;54.324;18.558;2024-02-23T09:15:05;1.35;;;0.77;;
42912;SDS011;50720;54.324;18.558;2024-02-23T09:17:57;3.22;;;1.25;;
42912;SDS011;50720;54.324;18.558;2024-02-23T09:20:41;2.45;;;0.60;;
42912;SDS011;50720;54.324;18.558;2024-02-23T09:23:33;2.20;;;0.82;;
42912;SDS011;50720;54.324;18.558;2024-02-23T09:26:19;1.25;;;0.70;;
42912;SDS011;50720;54.324;18.558;2024-02-23T09:29:10;1.13;;;0.68;;
42912;SDS011;50720;54.324;18.558;2024-02-23T09:31:54;3.10;;;0.90;;
42912;SDS011;50720;54.324;18.558;2024-02-23T09:34:45;1.40;;;0.50;;
42912;SDS011;50720;54.324;18.558;2024-02-23T09:37:35;1.33;;;0.55;;
42912;SDS011;50720;54.324;18.558;2024-02-23T09:40:26;3.90;;;1.92;;
42912;SDS011;50720;54.324;18.558;2024-02-23T09:43:19;2.90;;;0.63;;
42912;SDS011;50720;54.324;18.558;2024-02-23T09:46:11;1.02;;;0.40;;
42912;SDS011;50720;54.324;18.558;2024-02-23T09:49:09;3.85;;;0.60;;
42912;SDS011;50720;54.324;18.558;2024-02-23T09:52:09;1.25;;;0.30;;
42912;SDS011;50720;54.324;18.558;2024-02-23T09:55:01;1.38;;;0.50;;
42912;SDS011;50720;54.324;18.558;2024-02-23T09:57:53;1.38;;;0.40;;
42912;SDS011;50720;54.324;18.558;2024-02-23T10:00:49;1.90;;;0.47;;
42912;SDS011;50720;54.324;18.558;2024-02-23T10:03:41;1.52;;;0.60;;
42912;SDS011;50720;54.324;18.558;2024-02-23T10:06:31;1.70;;;0.70;;
42912;SDS011;50720;54.324;18.558;2024-02-23T10:09:22;1.30;;;0.57;;
42912;SDS011;50720;54.324;18.558;2024-02-23T10:12:12;4.82;;;0.60;;
42912;SDS011;50720;54.324;18.558;2024-02-23T10:15:04;3.88;;;0.73;;
42912;SDS011;50720;54.324;18.558;2024-02-23T10:18:11;2.20;;;0.82;;
42912;SDS011;50720;54.324;18.558;2024-02-23T10:21:15;1.77;;;0.82;;
42912;SDS011;50720;54.324;18.558;2024-02-23T10:24:06;3.13;;;0.77;;
42912;SDS011;50720;54.324;18.558;2024-02-23T10:27:10;4.57;;;1.00;;
42912;SDS011;50720;54.324;18.558;2024-02-23T10:30:01;1.70;;;0.73;;
42912;SDS011;50720;54.324;18.558;2024-02-23T10:32:59;1.65;;;0.98;;
42912;SDS011;50720;54.324;18.558;2024-02-23T10:35:56;4.97;;;0.75;;
42912;SDS011;50720;54.324;18.558;2024-02-23T10:38:55;3.20;;;0.73;;
42912;SDS011;50720;54.324;18.558;2024-02-23T10:41:56;4.47;;;0.98;;
42912;SDS011;50720;54.324;18.558;2024-02-23T10:44:56;3.75;;;0.63;;
42912;SDS011;50720;54.324;18.558;2024-02-23T10:47:50;2.88;;;0.88;;
42912;SDS011;50720;54.324;18.558;2024-02-23T10:50:49;2.85;;;0.80;;
42912;SDS011;50720;54.324;18.558;2024-02-23T10:53:42;0.90;;;0.60;;
42912;SDS011;50720;54.324;18.558;2024-02-23T10:56:42;1.63;;;0.60;;
42912;SDS011;50720;54.324;18.558;2024-02-23T10:59:36;3.22;;;1.27;;
42912;SDS011;50720;54.324;18.558;2024-02-23T11:02:38;3.38;;;0.45;;
42912;SDS011;50720;54.324;18.558;2024-02-23T11:05:43;1.90;;;0.50;;
42912;SDS011;50720;54.324;18.558;2024-02-23T11:12:25;7.75;;;1.10;;
42912;SDS011;50720;54.324;18.558;2024-02-23T11:15:32;3.33;;;0.65;;
42912;SDS011;50720;54.324;18.558;2024-02-23T11:18:41;2.95;;;0.60;;
42912;SDS011;50720;54.324;18.558;2024-02-23T11:21:42;2.22;;;0.55;;
42912;SDS011;50720;54.324;18.558;2024-02-23T11:25:07;3.20;;;0.52;;
42912;SDS011;50720;54.324;18.558;2024-02-23T11:28:06;1.85;;;1.20;;
42912;SDS011;50720;54.324;18.558;2024-02-23T11:31:12;1.05;;;0.63;;
42912;SDS011;50720;54.324;18.558;2024-02-23T11:34:13;1.77;;;0.40;;
42912;SDS011;50720;54.324;18.558;2024-02-23T11:37:28;3.35;;;0.60;;
42912;SDS011;50720;54.324;18.558;2024-02-23T11:40:34;0.88;;;0.45;;
42912;SDS011;50720;54.324;18.558;2024-02-23T11:43:40;1.40;;;0.60;;
42912;SDS011;50720;54.324;18.558;2024-02-23T11:46:43;3.28;;;1.02;;
42912;SDS011;50720;54.324;18.558;2024-02-23T11:49:50;3.40;;;0.50;;
42912;SDS011;50720;54.324;18.558;2024-02-23T11:52:33;1.85;;;0.95;;
42912;SDS011;50720;54.324;18.558;2024-02-23T11:55:17;2.10;;;0.70;;
42912;SDS011;50720;54.324;18.558;2024-02-23T11:58:05;3.60;;;0.73;;
42912;SDS011;50720;54.324;18.558;2024-02-23T12:00:58;2.28;;;0.60;;
42912;SDS011;50720;54.324;18.558;2024-02-23T12:03:44;0.80;;;0.57;;
42912;SDS011;50720;54.324;18.558;2024-02-23T12:06:27;2.80;;;0.57;;
42912;SDS011;50720;54.324;18.558;2024-02-23T12:09:14;8.90;;;1.25;;
42912;SDS011;50720;54.324;18.558;2024-02-23T12:11:57;4.90;;;0.52;;
42912;SDS011;50720;54.324;18.558;2024-02-23T12:14:42;9.82;;;1.10;;
42912;SDS011;50720;54.324;18.558;2024-02-23T12:17:26;4.07;;;0.55;;
42912;SDS011;50720;54.324;18.558;2024-02-23T12:20:11;11.43;;;1.20;;
42912;SDS011;50720;54.324;18.558;2024-02-23T12:22:55;5.13;;;1.15;;
42912;SDS011;50720;54.324;18.558;2024-02-23T12:25:39;1.45;;;0.55;;
42912;SDS011;50720;54.324;18.558;2024-02-23T12:28:23;5.20;;;0.63;;
42912;SDS011;50720;54.324;18.558;2024-02-23T12:31:08;1.70;;;0.50;;
42912;SDS011;50720;54.324;18.558;2024-02-23T12:33:51;3.78;;;0.90;;
42912;SDS011;50720;54.324;18.558;2024-02-23T12:36:36;1.92;;;0.65;;
42912;SDS011;50720;54.324;18.558;2024-02-23T12:39:19;1.73;;;0.63;;
42912;SDS011;50720;54.324;18.558;2024-02-23T12:42:03;2.00;;;0.90;;
42912;SDS011;50720;54.324;18.558;2024-02-23T12:44:46;2.20;;;0.60;;
42912;SDS011;50720;54.324;18.558;2024-02-23T12:47:32;2.53;;;0.52;;
42912;SDS011;50720;54.324;18.558;2024-02-23T12:50:15;3.75;;;0.60;;
42912;SDS011;50720;54.324;18.558;2024-02-23T12:52:59;2.53;;;0.75;;
42912;SDS011;50720;54.324;18.558;2024-02-23T12:55:43;0.73;;;0.63;;
42912;SDS011;50720;54.324;18.558;2024-02-23T12:58:26;1.42;;;0.60;;
42912;SDS011;50720;54.324;18.558;2024-02-23T13:01:10;1.80;;;0.50;;
42912;SDS011;50720;54.324;18.558;2024-02-23T13:03:55;1.83;;;0.93;;
42912;SDS011;50720;54.324;18.558;2024-02-23T13:06:39;1.88;;;1.00;;
42912;SDS011;50720;54.324;18.558;2024-02-23T13:09:23;1.48;;;0.40;;
42912;SDS011;50720;54.324;18.558;2024-02-23T13:12:07;3.70;;;0.50;;
42912;SDS011;50720;54.324;18.558;2024-02-23T13:14:51;1.38;;;0.68;;
42912;SDS011;50720;54.324;18.558;2024-02-23T13:17:34;3.08;;;0.75;;
42912;SDS011;50720;54.324;18.558;2024-02-23T13:20:20;2.33;;;1.02;;
42912;SDS011;50720;54.324;18.558;2024-02-23T13:23:04;3.03;;;0.70;;
42912;SDS011;50720;54.324;18.558;2024-02-23T13:25:50;12.80;;;1.10;;
42912;SDS011;50720;54.324;18.558;2024-02-23T13:28:33;1.25;;;0.45;;
42912;SDS011;50720;54.324;18.558;2024-02-23T13:31:17;3.45;;;1.35;;
42912;SDS011;50720;54.324;18.558;2024-02-23T13:34:00;1.92;;;0.73;;
42912;SDS011;50720;54.324;18.558;2024-02-23T13:36:46;2.28;;;0.50;;
42912;SDS011;50720;54.324;18.558;2024-02-23T13:39:31;1.90;;;0.85;;
42912;SDS011;50720;54.324;18.558;2024-02-23T13:42:15;1.42;;;0.80;;
42912;SDS011;50720;54.324;18.558;2024-02-23T13:44:58;4.72;;;0.40;;
42912;SDS011;50720;54.324;18.558;2024-02-23T13:47:42;5.25;;;0.75;;
42912;SDS011;50720;54.324;18.558;2024-02-23T13:50:27;8.38;;;1.00;;
42912;SDS011;50720;54.324;18.558;2024-02-23T13:53:12;7.43;;;0.88;;
42912;SDS011;50720;54.324;18.558;2024-02-23T13:55:56;7.63;;;1.25;;
42912;SDS011;50720;54.324;18.558;2024-02-23T13:58:39;7.03;;;1.10;;
42912;SDS011;50720;54.324;18.558;2024-02-23T14:01:23;6.05;;;0.85;;
42912;SDS011;50720;54.324;18.558;2024-02-23T14:04:07;2.03;;;0.80;;
42912;SDS011;50720;54.324;18.558;2024-02-23T14:06:51;8.50;;;1.52;;
42912;SDS011;50720;54.324;18.558;2024-02-23T14:09:35;5.07;;;0.65;;
42912;SDS011;50720;54.324;18.558;2024-02-23T14:12:19;3.60;;;0.85;;
42912;SDS011;50720;54.324;18.558;2024-02-23T14:15:03;6.00;;;0.70;;
42912;SDS011;50720;54.324;18.558;2024-02-23T14:17:47;12.05;;;1.27;;
42912;SDS011;50720;54.324;18.558;2024-02-23T14:20:32;5.18;;;0.90;;
42912;SDS011;50720;54.324;18.558;2024-02-23T14:23:15;4.95;;;0.90;;
42912;SDS011;50720;54.324;18.558;2024-02-23T14:26:00;3.67;;;0.80;;
42912;SDS011;50720;54.324;18.558;2024-02-23T14:28:44;2.28;;;0.70;;
42912;SDS011;50720;54.324;18.558;2024-02-23T14:31:27;3.80;;;0.70;;
42912;SDS011;50720;54.324;18.558;2024-02-23T14:34:11;1.80;;;0.40;;
42912;SDS011;50720;54.324;18.558;2024-02-23T14:36:55;3.25;;;0.47;;
42912;SDS011;50720;54.324;18.558;2024-02-23T14:39:39;1.63;;;0.60;;
42912;SDS011;50720;54.324;18.558;2024-02-23T14:42:27;1.90;;;0.50;;
42912;SDS011;50720;54.324;18.558;2024-02-23T14:45:11;1.60;;;0.45;;
42912;SDS011;50720;54.324;18.558;2024-02-23T14:47:57;1.80;;;0.73;;
42912;SDS011;50720;54.324;18.558;2024-02-23T14:50:42;1.17;;;0.57;;
42912;SDS011;50720;54.324;18.558;2024-02-23T14:53:25;1.65;;;0.80;;
42912;SDS011;50720;54.324;18.558;2024-02-23T14:56:10;3.15;;;0.77;;
42912;SDS011;50720;54.324;18.558;2024-02-23T14:58:55;6.15;;;1.30;;
42912;SDS011;50720;54.324;18.558;2024-02-23T15:01:39;6.63;;;0.93;;
42912;SDS011;50720;54.324;18.558;2024-02-23T15:04:23;9.48;;;1.08;;
42912;SDS011;50720;54.324;18.558;2024-02-23T15:07:06;3.95;;;0.82;;
42912;SDS011;50720;54.324;18.558;2024-02-23T15:09:50;5.28;;;1.30;;
42912;SDS011;50720;54.324;18.558;2024-02-23T15:12:34;9.10;;;1.42;;
42912;SDS011;50720;54.324;18.558;2024-02-23T15:15:19;2.80;;;0.90;;
42912;SDS011;50720;54.324;18.558;2024-02-23T15:18:03;3.55;;;1.08;;
42912;SDS011;50720;54.324;18.558;2024-02-23T15:20:47;2.78;;;1.10;;
42912;SDS011;50720;54.324;18.558;2024-02-23T15:23:33;12.30;;;1.52;;
42912;SDS011;50720;54.324;18.558;2024-02-23T15:26:17;11.18;;;1.35;;
42912;SDS011;50720;54.324;18.558;2024-02-23T15:29:00;1.88;;;0.90;;
42912;SDS011;50720;54.324;18.558;2024-02-23T15:31:47;2.88;;;0.60;;
42912;SDS011;50720;54.324;18.558;2024-02-23T15:34:30;2.72;;;0.90;;
42912;SDS011;50720;54.324;18.558;2024-02-23T15:37:13;3.60;;;1.05;;
42912;SDS011;50720;54.324;18.558;2024-02-23T15:39:57;2.70;;;0.80;;
42912;SDS011;50720;54.324;18.558;2024-02-23T15:42:41;5.93;;;1.20;;
42912;SDS011;50720;54.324;18.558;2024-02-23T15:45:24;20.60;;;3.80;;
42912;SDS011;50720;54.324;18.558;2024-02-23T15:48:09;58.95;;;7.20;;
42912;SDS011;50720;54.324;18.558;2024-02-23T15:50:55;51.03;;;7.47;;
42912;SDS011;50720;54.324;18.558;2024-02-23T15:53:59;38.47;;;4.78;;
42912;SDS011;50720;54.324;18.558;2024-02-23T15:56:43;28.52;;;4.00;;
42912;SDS011;50720;54.324;18.558;2024-02-23T15:59:26;11.00;;;2.38;;
42912;SDS011;50720;54.324;18.558;2024-02-23T16:02:11;7.25;;;1.73;;
42912;SDS011;50720;54.324;18.558;2024-02-23T16:04:56;12.85;;;1.95;;
42912;SDS011;50720;54.324;18.558;2024-02-23T16:07:40;8.50;;;1.70;;
42912;SDS011;50720;54.324;18.558;2024-02-23T16:10:23;10.00;;;1.80;;
42912;SDS011;50720;54.324;18.558;2024-02-23T16:13:07;7.63;;;2.20;;
42912;SDS011;50720;54.324;18.558;2024-02-23T16:15:51;6.20;;;1.50;;
42912;SDS011;50720;54.324;18.558;2024-02-23T16:18:35;8.98;;;1.67;;
42912;SDS011;50720;54.324;18.558;2024-02-23T16:21:21;6.13;;;1.65;;